createdAt,value
2018-10-03T00:03:50.716Z,7.37
2018-10-03T00:08:54.993Z,7.33
2018-10-03T00:13:59.464Z,7.10
2018-10-03T00:19:03.908Z,7.20
2018-10-03T00:24:08.238Z,7.27
2018-10-03T00:29:12.526Z,7.63
2018-10-03T00:34:16.984Z,6.90
2018-10-03T00:39:23.879Z,7.10
2018-10-03T00:44:28.186Z,6.67
2018-10-03T00:49:32.646Z,6.13
2018-10-03T00:54:37.048Z,6.30
2018-10-03T00:59:41.220Z,5.30
2018-10-03T01:04:46.441Z,5.40
2018-10-03T01:09:50.810Z,4.30
2018-10-03T01:14:55.068Z,3.90
2018-10-03T01:19:59.272Z,3.27
2018-10-03T01:25:03.458Z,4.03
2018-10-03T01:30:07.730Z,3.57
2018-10-03T01:35:12.437Z,4.00
2018-10-03T01:40:16.746Z,4.03
2018-10-03T01:45:20.982Z,3.47
2018-10-03T01:50:25.503Z,3.47
2018-10-03T01:55:29.890Z,4.30
2018-10-03T02:00:34.240Z,4.23
2018-10-03T02:05:39.996Z,4.17
2018-10-03T02:10:44.854Z,3.70
2018-10-03T02:15:49.781Z,3.57
2018-10-03T02:20:54.030Z,4.03
2018-10-03T02:25:58.357Z,4.57
2018-10-03T02:31:02.826Z,4.00
2018-10-03T02:36:07.101Z,3.50
2018-10-03T02:41:11.264Z,4.33
2018-10-03T02:46:15.535Z,4.00
2018-10-03T02:51:20.034Z,4.30
2018-10-03T02:56:24.625Z,4.13
2018-10-03T03:01:29.025Z,3.67
2018-10-03T03:06:33.742Z,3.73
2018-10-03T03:11:38.107Z,3.63
2018-10-03T03:16:42.346Z,3.90
2018-10-03T03:21:46.904Z,4.57
2018-10-03T03:26:51.431Z,4.03
2018-10-03T03:31:55.636Z,4.37
2018-10-03T03:36:59.914Z,4.93
2018-10-03T03:42:04.116Z,4.50
2018-10-03T03:47:08.235Z,5.57
2018-10-03T03:52:12.725Z,4.07
2018-10-03T03:57:16.828Z,3.97
2018-10-03T04:02:21.038Z,4.13
2018-10-03T04:07:26.377Z,3.80
2018-10-03T04:12:30.724Z,4.23
2018-10-03T04:17:35.018Z,3.83
2018-10-03T04:22:39.820Z,4.47
2018-10-03T04:27:44.069Z,4.37
2018-10-03T04:32:48.622Z,4.00
2018-10-03T04:37:53.126Z,4.30
2018-10-03T04:42:57.460Z,4.33
2018-10-03T04:48:01.756Z,3.17
2018-10-03T04:53:06.593Z,4.43
2018-10-03T04:58:10.978Z,3.63
2018-10-03T05:03:15.842Z,4.17
2018-10-03T05:08:20.153Z,3.70
2018-10-03T05:13:24.498Z,3.43
2018-10-03T05:18:28.797Z,4.53
2018-10-03T05:23:33.166Z,3.50
2018-10-03T05:28:37.711Z,3.80
2018-10-03T05:33:42.250Z,4.10
2018-10-03T05:38:46.402Z,3.77
2018-10-03T05:43:50.676Z,3.47
2018-10-03T05:48:55.571Z,4.13
2018-10-03T05:53:59.786Z,3.90
2018-10-03T05:59:04.146Z,3.03
2018-10-03T06:04:08.410Z,3.70
2018-10-03T06:09:13.407Z,4.43
2018-10-03T06:14:17.797Z,3.47
2018-10-03T06:19:22.410Z,4.00
2018-10-03T06:24:26.691Z,4.13
2018-10-03T06:29:31.261Z,3.90
2018-10-03T06:34:35.555Z,3.37
2018-10-03T06:39:39.809Z,3.60
2018-10-03T06:44:44.163Z,4.13
2018-10-03T06:49:48.575Z,4.23
2018-10-03T06:54:53.181Z,3.87
2018-10-03T06:59:57.595Z,3.87
2018-10-03T07:05:02.006Z,3.57
2018-10-03T07:10:06.642Z,3.87
2018-10-03T07:15:11.110Z,3.83
2018-10-03T07:20:19.692Z,4.33
2018-10-03T07:25:24.613Z,3.97
2018-10-03T07:30:28.951Z,4.10
2018-10-03T07:35:33.496Z,3.90
2018-10-03T07:40:39.035Z,4.37
2018-10-03T07:45:44.627Z,5.10
2018-10-03T07:52:18.264Z,4.13
2018-10-03T07:57:22.690Z,4.10
2018-10-03T08:02:27.200Z,4.00
2018-10-03T08:07:33.512Z,4.03
2018-10-03T08:12:40.026Z,4.23
2018-10-03T08:17:44.810Z,4.17
2018-10-03T08:22:49.751Z,4.00
2018-10-03T08:27:54.227Z,3.80
2018-10-03T08:32:59.851Z,3.10
2018-10-03T08:38:04.094Z,3.20
2018-10-03T08:43:09.197Z,4.07
2018-10-03T08:48:13.537Z,4.10
2018-10-03T08:53:18.074Z,3.60
2018-10-03T08:58:23.593Z,3.90
2018-10-03T09:03:35.722Z,4.30
2018-10-03T09:08:56.649Z,4.47
2018-10-03T09:14:05.403Z,4.07
2018-10-03T09:24:53.076Z,3.53
2018-10-03T09:29:57.730Z,4.10
2018-10-03T09:41:15.486Z,4.67
2018-10-03T09:46:24.486Z,3.10
2018-10-03T09:51:36.283Z,3.40
2018-10-03T09:56:41.130Z,3.50
2018-10-03T10:01:50.783Z,4.50
2018-10-03T10:06:55.327Z,3.60
2018-10-03T10:12:00.259Z,3.70
2018-10-03T10:17:20.526Z,3.13
2018-10-03T10:22:34.601Z,3.50
2018-10-03T10:27:42.555Z,3.23
2018-10-03T10:32:48.367Z,3.80
2018-10-03T10:37:52.803Z,3.40
2018-10-03T10:42:57.775Z,3.53
2018-10-03T10:48:02.373Z,3.80
2018-10-03T10:53:07.159Z,2.70
2018-10-03T10:58:11.721Z,3.63
2018-10-03T11:03:16.493Z,3.77
2018-10-03T11:08:22.059Z,3.60
2018-10-03T11:13:26.711Z,3.40
2018-10-03T11:18:32.346Z,3.40
2018-10-03T11:23:38.024Z,2.97
2018-10-03T11:28:43.403Z,3.90
2018-10-03T11:33:49.659Z,3.27
2018-10-03T11:38:54.286Z,3.30
2018-10-03T11:43:59.539Z,3.13
2018-10-03T11:49:04.289Z,3.40
2018-10-03T11:54:08.886Z,3.20
2018-10-03T11:59:13.598Z,3.40
2018-10-03T12:04:17.955Z,3.43
2018-10-03T12:09:23.483Z,3.17
2018-10-03T12:14:33.164Z,2.80
2018-10-03T12:19:37.737Z,3.13
2018-10-03T12:24:42.078Z,2.80
2018-10-03T12:29:46.619Z,2.77
2018-10-03T12:34:52.093Z,3.40
2018-10-03T12:39:56.580Z,3.00
2018-10-03T12:45:01.057Z,3.00
2018-10-03T12:50:10.804Z,2.60
2018-10-03T12:55:26.301Z,3.93
2018-10-03T13:00:37.528Z,2.40
2018-10-03T13:05:42.700Z,2.43
2018-10-03T13:10:55.192Z,2.10
2018-10-03T13:26:07.443Z,2.90
2018-10-03T13:31:11.938Z,3.00
2018-10-03T13:36:16.326Z,3.00
2018-10-03T13:41:28.016Z,3.30
2018-10-03T13:46:33.132Z,2.73
2018-10-03T13:51:37.655Z,3.60
2018-10-03T13:56:42.529Z,3.07
2018-10-03T14:01:48.275Z,2.40
2018-10-03T14:06:52.807Z,3.07
2018-10-03T14:11:57.390Z,2.87
2018-10-03T14:17:02.103Z,3.00
2018-10-03T14:22:06.600Z,3.30
2018-10-03T14:27:11.618Z,2.60
2018-10-03T14:32:25.237Z,2.93
2018-10-03T14:37:29.997Z,2.80
2018-10-03T14:42:34.536Z,2.93
2018-10-03T14:47:39.424Z,3.30
2018-10-03T14:52:44.379Z,2.80
2018-10-03T14:57:49.066Z,2.67
2018-10-03T15:02:58.771Z,2.23
2018-10-03T15:08:03.239Z,3.03
2018-10-03T15:13:13.349Z,4.97
2018-10-03T15:18:17.859Z,2.63
2018-10-03T15:23:23.123Z,2.70
2018-10-03T15:28:27.709Z,2.50
2018-10-03T15:33:32.837Z,4.13
2018-10-03T15:38:37.615Z,2.67
2018-10-03T15:43:42.545Z,3.00
2018-10-03T15:48:47.493Z,2.50
2018-10-03T15:53:53.149Z,2.57
2018-10-03T15:58:57.736Z,2.27
2018-10-03T16:04:02.671Z,2.60
2018-10-03T16:09:08.277Z,2.60
2018-10-03T16:14:18.029Z,3.40
2018-10-03T16:19:27.380Z,2.70
2018-10-03T16:24:34.013Z,2.20
2018-10-03T16:29:38.602Z,2.80
2018-10-03T16:34:44.552Z,3.10
2018-10-03T16:39:53.046Z,2.53
2018-10-03T16:45:13.489Z,2.90
2018-10-03T16:50:23.960Z,2.63
2018-10-03T16:55:28.972Z,2.63
2018-10-03T17:00:33.420Z,2.60
2018-10-03T17:05:39.224Z,4.10
2018-10-03T17:10:43.683Z,2.77
2018-10-03T17:15:48.216Z,3.47
2018-10-03T17:20:53.685Z,2.87
2018-10-03T17:25:58.307Z,2.67
2018-10-03T17:31:03.124Z,2.50
2018-10-03T17:36:08.638Z,2.80
2018-10-03T17:41:13.647Z,3.00
2018-10-03T17:46:19.299Z,2.73
2018-10-03T17:51:24.970Z,2.67
2018-10-03T17:56:30.029Z,2.70
2018-10-03T18:01:36.716Z,10.37
2018-10-03T18:06:43.146Z,19.97
2018-10-03T18:11:48.662Z,6.20
2018-10-03T18:16:56.419Z,4.50
2018-10-03T18:22:19.445Z,4.37
2018-10-03T18:33:06.209Z,3.90
2018-10-03T18:38:10.991Z,4.53
2018-10-03T18:43:26.487Z,4.40
2018-10-03T18:48:32.171Z,5.23
2018-10-03T18:53:45.815Z,4.53
2018-10-03T18:58:51.662Z,4.30
2018-10-03T19:03:56.019Z,4.37
2018-10-03T19:09:02.288Z,4.27
2018-10-03T19:14:07.017Z,3.90
2018-10-03T19:19:13.735Z,3.60
2018-10-03T19:24:20.322Z,3.83
2018-10-03T19:29:24.932Z,3.27
2018-10-03T19:34:29.654Z,3.80
2018-10-03T19:39:41.232Z,3.73
2018-10-03T19:50:48.260Z,3.03
2018-10-03T19:55:59.408Z,3.50
2018-10-03T20:01:09.668Z,3.13
2018-10-03T20:06:18.290Z,3.10
2018-10-03T20:11:24.692Z,3.17
2018-10-03T20:16:31.712Z,3.60
2018-10-03T20:27:11.113Z,3.80
2018-10-03T20:32:15.942Z,3.47
2018-10-03T20:37:20.526Z,4.17
2018-10-03T20:42:26.089Z,6.03
2018-10-03T20:47:30.973Z,3.07
2018-10-03T20:52:35.411Z,3.00
2018-10-03T20:57:41.389Z,3.27
2018-10-03T21:02:46.189Z,4.53
2018-10-03T21:07:50.700Z,3.43
2018-10-03T21:12:55.213Z,4.03
2018-10-03T21:17:59.576Z,3.40
2018-10-03T21:23:03.951Z,3.13
2018-10-03T21:28:08.391Z,3.33
2018-10-03T21:33:12.687Z,2.90
2018-10-03T21:38:17.674Z,3.07
2018-10-03T21:43:21.998Z,3.00
2018-10-03T21:48:26.400Z,3.37
2018-10-03T21:53:30.848Z,3.40
2018-10-03T21:58:35.422Z,3.23
2018-10-03T22:03:40.749Z,3.07
2018-10-03T22:08:45.916Z,3.60
2018-10-03T22:13:50.898Z,3.40
2018-10-03T22:18:55.725Z,2.87
2018-10-03T22:24:00.215Z,3.33
2018-10-03T22:29:04.502Z,3.73
2018-10-03T22:34:22.946Z,3.33
2018-10-03T22:39:27.356Z,3.50
2018-10-03T22:44:31.979Z,3.47
2018-10-03T22:49:36.358Z,3.13
2018-10-03T22:54:40.617Z,3.13
2018-10-03T22:59:44.826Z,4.23
2018-10-03T23:04:49.100Z,3.17
2018-10-03T23:09:53.300Z,3.03
2018-10-03T23:14:57.569Z,3.10
2018-10-03T23:20:01.744Z,2.97
2018-10-03T23:25:05.933Z,3.50
2018-10-03T23:30:09.792Z,3.33
2018-10-03T23:35:14.222Z,3.00
2018-10-03T23:40:18.756Z,3.47
2018-10-03T23:45:23.274Z,3.17
2018-10-03T23:50:27.402Z,3.33
2018-10-03T23:55:31.665Z,3.73
